Terminal Aerodrome Forecast
Issued by NWS Jacksonville, FL

Home | Current Version | Previous Version | Text Only | Print | Product List | Glossary On
Versions: 1 2 3 4 5 6 7 8 9 10 11 12 13 14 15 16 17 18 19 20 21 22 23 24 25 26 27 28 29
000
FTUS42 KJAX 280710 AAB
TAFJAX
TAF AMD
KJAX 280710Z 2807/0106 02011G16KT P6SM OVC030
     FM280900 02012G18KT P6SM VCSH SCT015 OVC025
     FM281100 03013G20KT 5SM -RA BR SCT008 OVC015 WS015/02035KT
     FM281500 02015G25KT 3SM RA BR SCT004 BKN007
     FM010000 01010G15KT 5SM -RA BR BKN004 OVC007=

USA.gov is the U.S. government's official web portal to all federal, state and local government web resources and services.